SGCO/CIO METAR and TAF weather

Enter ICAO airport designator
Station Type Date Time Source
SGCO METAR 2020/07/13 21:00 UTC NOAA

SGCO 132100Z 18008KT 9999 SCT040 24/19 Q1014


Station Type Date Time Source
SGCO Decoded METAR 2020/07/13 21:00 UTC NOAA

Concepcion, Paraguay (SGCO) 23-25S 057-18W 74M
Jul 13, 2020 - 05:00 PM EDT / 2020.07.13 2100 UTC
Wind: from the S (180 degrees) at 9 MPH (8 KT):0
Visibility: greater than 7 mile(s):0
Sky conditions: partly cloudy
Temperature: 75 F (24 C)
Dew Point: 66 F (19 C)
Relative Humidity: 73%
Pressure (altimeter): 29.94 in. Hg (1014 hPa)
ob: SGCO 132100Z 18008KT 9999 SCT040 24/19 Q1014
cycle: 21

Station Type Date Time Source
SGCO TAF 2020/07/14 18:00 UTC NOAA

TAF SGCO 141620Z 1418/1518 18010KT CAVOK TX25/1419Z TN12/1409Z
BECMG 1419/1421 14005KT 9999 SCT033
BECMG 1512/1515 10008KT 9999 BKN027

Example: see airport list